TimeEST,TemperatureF,Dew PointF,Humidity,Sea Level PressureIn,VisibilityMPH,Wind Direction,Wind SpeedMPH,Gust SpeedMPH,PrecipitationIn,Events,Conditions,WindDirDegrees,DateUTC
12:53 AM,37.0,30.0,76,30.18,10.0,NNE,3.5,-,N/A,,Overcast,20,2012-12-09 05:53:00
1:53 AM,35.1,28.9,78,30.19,10.0,NNE,10.4,-,N/A,,Overcast,30,2012-12-09 06:53:00
2:53 AM,35.1,28.9,78,30.22,10.0,ENE,5.8,-,N/A,,Overcast,70,2012-12-09 07:53:00
3:53 AM,34.0,28.0,79,30.23,10.0,NE,11.5,-,N/A,,Overcast,40,2012-12-09 08:53:00
4:53 AM,34.0,27.0,75,30.24,10.0,ENE,8.1,-,N/A,,Overcast,70,2012-12-09 09:53:00
5:53 AM,32.0,26.1,79,30.25,10.0,NE,10.4,-,N/A,,Overcast,40,2012-12-09 10:53:00
6:53 AM,30.9,25.0,79,30.27,10.0,ENE,9.2,-,N/A,,Overcast,60,2012-12-09 11:53:00
7:37 AM,30.2,24.8,80,30.23,10.0,East,9.2,-,N/A,,Mostly Cloudy,90,2012-12-09 12:37:00
7:53 AM,30.9,25.0,79,30.24,10.0,ENE,11.5,-,N/A,,Mostly Cloudy,70,2012-12-09 12:53:00
8:42 AM,30.2,26.6,86,30.22,10.0,NE,10.4,-,N/A,,Overcast,50,2012-12-09 13:42:00
8:53 AM,30.9,26.1,82,30.25,10.0,ENE,8.1,-,N/A,,Overcast,60,2012-12-09 13:53:00
9:31 AM,32.0,26.6,80,30.21,10.0,NE,8.1,-,N/A,,Overcast,40,2012-12-09 14:31:00
9:43 AM,30.2,26.6,86,30.22,10.0,NE,11.5,-,N/A,,Overcast,40,2012-12-09 14:43:00
9:53 AM,30.9,26.1,82,30.23,10.0,NE,10.4,-,N/A,,Mostly Cloudy,40,2012-12-09 14:53:00
10:10 AM,32.0,24.8,75,30.21,10.0,NE,12.7,-,N/A,,Overcast,50,2012-12-09 15:10:00
10:21 AM,32.0,24.8,75,30.21,10.0,NE,12.7,-,N/A,,Overcast,40,2012-12-09 15:21:00
10:46 AM,33.8,26.6,75,30.19,10.0,ENE,10.4,-,N/A,,Mostly Cloudy,70,2012-12-09 15:46:00
10:53 AM,33.1,27.0,78,30.21,10.0,NE,10.4,-,N/A,,Scattered Clouds,50,2012-12-09 15:53:00
11:53 AM,36.0,28.9,76,30.14,10.0,ENE,11.5,-,N/A,,Clear,60,2012-12-09 16:53:00
12:53 PM,41.0,30.0,65,30.09,10.0,East,9.2,-,N/A,,Partly Cloudy,90,2012-12-09 17:53:00
1:53 PM,42.1,28.0,58,30.05,10.0,East,8.1,-,0.00,Rain,Light Rain,90,2012-12-09 18:53:00
2:53 PM,39.0,30.9,73,30.04,10.0,NE,8.1,-,0.00,Rain,Light Rain,40,2012-12-09 19:53:00
3:04 PM,39.2,32.0,75,30.02,10.0,NE,8.1,-,0.00,Rain,Light Rain,50,2012-12-09 20:04:00
3:53 PM,37.9,33.1,83,30.02,10.0,NE,9.2,-,0.00,,Overcast,40,2012-12-09 20:53:00
4:53 PM,37.9,34.0,86,29.98,10.0,ENE,6.9,-,N/A,,Overcast,60,2012-12-09 21:53:00
5:53 PM,39.0,34.0,82,29.92,10.0,NE,9.2,-,N/A,,Overcast,50,2012-12-09 22:53:00
6:53 PM,44.1,39.0,82,29.87,10.0,Calm,Calm,-,0.05,,Overcast,0,2012-12-09 23:53:00
7:53 PM,45.0,41.0,86,29.83,10.0,WNW,6.9,-,0.00,,Overcast,290,2012-12-10 00:53:00
8:05 PM,46.4,41.0,81,29.81,10.0,West,6.9,-,0.00,Rain,Light Rain,270,2012-12-10 01:05:00
8:50 PM,46.4,42.8,87,29.78,10.0,SSE,6.9,-,0.02,,Overcast,160,2012-12-10 01:50:00
8:53 PM,46.9,42.1,83,29.79,10.0,SSE,10.4,16.1,0.02,,Overcast,150,2012-12-10 01:53:00
9:53 PM,46.9,42.1,83,29.77,10.0,South,21.9,33.4,0.02,,Overcast,170,2012-12-10 02:53:00
10:53 PM,48.0,43.0,83,29.74,10.0,South,20.7,29.9,N/A,,Overcast,170,2012-12-10 03:53:00
11:26 PM,48.2,44.6,87,29.70,10.0,SSE,25.3,31.1,N/A,,Overcast,160,2012-12-10 04:26:00
11:53 PM,48.9,45.0,86,29.70,10.0,South,24.2,33.4,0.01,Rain,Light Rain,180,2012-12-10 04:53:00